Time;durP1;ratioP1;P1;durP2;ratioP2;P2;SDS_P1;SDS_P2;PMS_P1;PMS_P2;Temp;Humidity;BMP_temperature;BMP_pressure;BME280_temperature;BME280_humidity;BME280_pressure;Samples;Min_cycle;Max_cycle;Signal;HPM_P1;HPM_P2
2022/01/17 00:01:33;;;;;;;31.27;18.33;;;;;;;1.90;63.74;100459.66;5094397;28;20028;-48
2022/01/17 00:03:59;;;;;;;30.17;19.27;;;;;;;1.91;63.57;100461.31;5093040;28;20024;-49
2022/01/17 00:06:25;;;;;;;32.00;18.27;;;;;;;1.77;63.29;100462.19;5094360;28;20073;-49
2022/01/17 00:08:51;;;;;;;31.83;18.25;;;;;;;1.60;63.41;100466.72;5093015;28;20019;-48
2022/01/17 00:11:19;;;;;;;31.67;20.38;;;;;;;1.53;64.20;100472.38;5094194;28;20103;-49
2022/01/17 00:13:45;;;;;;;34.88;20.00;;;;;;;1.55;64.30;100471.38;5092935;28;20024;-49
2022/01/17 00:16:18;;;;;;;30.75;18.77;;;;;;;1.56;64.07;100475.59;5094103;28;20024;-49
2022/01/17 00:21:10;;;;;;;34.35;20.05;;;;;;;1.61;64.45;100470.16;5094061;28;20028;-48
2022/01/17 00:23:36;;;;;;;35.42;19.60;;;;;;;1.70;64.21;100479.91;5092751;28;20028;-47
2022/01/17 00:26:04;;;;;;;31.02;19.50;;;;;;;1.75;63.93;100474.41;5094024;28;20038;-48
2022/01/17 00:28:30;;;;;;;127.32;89.15;;;;;;;1.65;63.94;100474.22;5094002;28;20502;-48
2022/01/17 00:30:56;;;;;;;47.47;27.85;;;;;;;1.68;64.66;100476.59;5092273;28;20079;-49
2022/01/17 00:33:23;;;;;;;85.00;60.28;;;;;;;1.76;64.08;100473.50;5093865;28;20048;-47
2022/01/17 00:35:49;;;;;;;35.47;23.80;;;;;;;1.82;63.77;100467.94;5093730;28;20024;-50
2022/01/17 00:38:15;;;;;;;36.60;21.30;;;;;;;1.87;64.06;100472.78;5094025;28;20035;-51
2022/01/17 00:40:41;;;;;;;35.97;21.48;;;;;;;1.87;63.90;100476.25;5093752;28;20077;-48
2022/01/17 00:43:08;;;;;;;32.25;21.10;;;;;;;1.82;64.33;100470.50;5092349;28;20021;-49
2022/01/17 00:45:37;;;;;;;36.55;19.48;;;;;;;1.89;64.19;100476.97;5093559;28;20016;-50
2022/01/17 00:48:03;;;;;;;30.10;18.80;;;;;;;1.93;64.13;100477.56;5093541;28;20107;-48
2022/01/17 00:50:31;;;;;;;35.58;21.55;;;;;;;1.95;63.67;100484.31;5093468;28;20048;-48
2022/01/17 00:53:02;;;;;;;39.80;22.15;;;;;;;1.86;63.52;100484.91;5092347;28;20431;-49
2022/01/17 00:55:29;;;;;;;41.47;22.73;;;;;;;1.82;63.61;100487.81;5093360;28;20024;-48
2022/01/17 00:57:55;;;;;;;35.63;21.98;;;;;;;1.77;63.66;100488.94;5093308;28;20028;-48
2022/01/17 01:00:21;;;;;;;33.40;20.75;;;;;;;1.76;63.86;100491.63;5091967;28;20416;-47
2022/01/17 01:02:47;;;;;;;35.28;21.27;;;;;;;1.74;63.86;100491.72;5091925;28;20405;-48
2022/01/17 01:05:13;;;;;;;37.58;21.38;;;;;;;1.81;64.17;100494.72;5093164;28;20024;-48
2022/01/17 01:07:39;;;;;;;33.00;21.17;;;;;;;1.79;63.43;100488.81;5091822;28;20028;-47
2022/01/17 01:10:10;;;;;;;34.63;22.17;;;;;;;1.69;63.58;100496.38;5093012;28;20562;-48
2022/01/17 01:12:38;;;;;;;37.03;23.65;;;;;;;1.55;63.67;100489.50;5093078;28;20509;-50
2022/01/17 01:15:06;;;;;;;38.88;23.42;;;;;;;1.48;64.54;100489.97;5091569;28;20579;-49
2022/01/17 01:17:47;;;;;;;36.25;21.70;;;;;;;1.42;64.33;100482.59;5092974;28;20402;-48
2022/01/17 01:21:02;;;;;;;40.80;23.45;;;;;;;1.37;64.76;100493.25;5093225;28;20393;-49
2022/01/17 01:28:29;;;;;;;40.78;24.00;;;;;;;1.44;65.46;100491.09;5093079;28;20043;-47
2022/01/17 01:30:57;;;;;;;39.25;23.33;;;;;;;1.59;65.30;100495.31;5092438;28;20127;-50
2022/01/17 01:33:36;;;;;;;38.15;23.42;;;;;;;1.68;64.93;100481.75;5092753;28;20016;-48
2022/01/17 01:36:11;;;;;;;39.17;21.88;;;;;;;1.71;64.43;100484.16;5091378;28;20498;-48
2022/01/17 01:38:39;;;;;;;39.83;23.35;;;;;;;1.76;64.70;100499.38;5091351;28;20118;-49
2022/01/17 01:41:05;;;;;;;44.70;24.85;;;;;;;1.73;64.38;100494.38;5092501;28;20386;-51
2022/01/17 01:43:31;;;;;;;44.30;24.58;;;;;;;1.73;64.67;100500.41;5092521;28;20395;-48
2022/01/17 01:46:00;;;;;;;40.80;24.38;;;;;;;1.75;64.78;100508.06;5092378;28;20028;-49
2022/01/17 01:48:27;;;;;;;38.92;23.52;;;;;;;1.74;64.96;100512.41;5091122;28;20035;-48
2022/01/17 01:50:53;;;;;;;42.20;24.52;;;;;;;1.82;64.59;100517.09;5090994;28;20024;-50
2022/01/17 01:53:18;;;;;;;38.92;24.80;;;;;;;1.74;64.26;100515.00;5091050;28;20489;-47
2022/01/17 01:55:45;;;;;;;47.58;25.83;;;;;;;1.57;64.13;100508.34;5090914;28;20131;-48
2022/01/17 01:58:11;;;;;;;45.55;25.75;;;;;;;1.42;64.40;100511.06;5090561;28;20572;-48
2022/01/17 02:00:38;;;;;;;40.67;24.42;;;;;;;1.40;64.87;100504.19;5107884;28;20115;-48
2022/01/17 02:03:06;;;;;;;44.45;26.45;;;;;;;1.44;64.64;100502.25;5090866;28;20563;-49
2022/01/17 02:05:32;;;;;;;44.60;26.08;;;;;;;1.47;64.76;100496.06;5092117;28;20032;-48
2022/01/17 02:07:58;;;;;;;48.53;26.92;;;;;;;1.47;65.44;100498.63;5092098;28;20031;-47
2022/01/17 02:10:24;;;;;;;42.20;26.38;;;;;;;1.54;64.74;100498.16;5090746;28;20028;-49
2022/01/17 02:12:50;;;;;;;48.10;26.63;;;;;;;1.57;64.73;100494.53;5092026;28;20024;-48
2022/01/17 02:15:17;;;;;;;45.15;25.90;;;;;;;1.55;64.76;100493.81;5090619;28;20481;-48
2022/01/17 02:17:46;;;;;;;44.20;25.67;;;;;;;1.65;64.94;100497.50;5090685;28;20016;-48
2022/01/17 02:20:19;;;;;;;42.35;25.00;;;;;;;1.78;64.74;100494.94;5091979;28;20027;-48
2022/01/17 02:22:45;;;;;;;40.65;23.52;;;;;;;1.95;64.27;100496.41;5090673;28;20031;-49
2022/01/17 02:25:11;;;;;;;48.55;25.67;;;;;;;2.01;64.54;100498.59;5091902;28;20046;-49
2022/01/17 02:27:37;;;;;;;41.67;24.35;;;;;;;2.09;64.20;100503.28;5090569;28;20482;-50
2022/01/17 02:30:05;;;;;;;44.17;24.83;;;;;;;2.04;63.88;100488.06;5090193;28;20066;-51
2022/01/17 02:32:30;;;;;;;42.53;24.40;;;;;;;2.03;63.83;100488.16;5092155;28;20027;-47
2022/01/17 02:35:12;;;;;;;44.00;25.02;;;;;;;1.89;63.66;100489.06;5090395;28;20073;-49
2022/01/17 02:37:38;;;;;;;41.10;25.83;;;;;;;1.79;63.63;100479.31;5090443;28;20062;-49
2022/01/17 02:40:05;;;;;;;46.13;27.42;;;;;;;1.55;63.23;100480.88;5091795;28;20024;-49
2022/01/17 02:42:32;;;;;;;42.65;25.15;;;;;;;1.29;64.42;100475.63;5091784;28;20032;-49
2022/01/17 02:45:08;;;;;;;43.75;26.48;;;;;;;1.43;65.42;100477.34;5090377;28;20043;-47
2022/01/17 02:47:34;;;;;;;41.67;24.70;;;;;;;1.50;64.44;100476.00;5091803;28;20033;-48
2022/01/17 02:49:59;;;;;;;44.40;23.48;;;;;;;1.50;64.04;100473.41;5090321;28;20030;-49
2022/01/17 02:52:25;;;;;;;41.30;24.55;;;;;;;1.66;64.66;100472.44;5091580;28;20027;-51
2022/01/17 02:54:51;;;;;;;42.67;23.88;;;;;;;1.64;64.31;100474.28;5091554;28;20030;-48
2022/01/17 02:57:16;;;;;;;58.05;27.65;;;;;;;1.60;64.20;100478.84;5090518;28;20496;-49
2022/01/17 02:59:42;;;;;;;41.00;24.02;;;;;;;1.59;63.91;100472.84;5090254;28;20023;-48
2022/01/17 03:02:08;;;;;;;37.38;22.42;;;;;;;1.60;64.17;100482.25;5090216;28;20111;-49
2022/01/17 03:04:33;;;;;;;42.58;22.55;;;;;;;1.69;64.03;100478.25;5091504;28;20024;-49
2022/01/17 03:07:00;;;;;;;43.17;23.13;;;;;;;1.76;63.85;100478.69;5090153;28;20032;-49
2022/01/17 03:09:29;;;;;;;43.13;23.83;;;;;;;1.88;63.68;100474.47;5091297;28;20036;-49
2022/01/17 03:11:56;;;;;;;50.50;27.33;;;;;;;1.97;63.60;100482.47;5095639;28;20405;-49
2022/01/17 03:14:21;;;;;;;39.15;22.92;;;;;;;2.06;63.15;100487.97;5095277;28;20023;-48
2022/01/17 03:16:49;;;;;;;44.78;23.58;;;;;;;2.11;63.15;100488.47;5093970;28;20023;-48
2022/01/17 03:19:15;;;;;;;43.38;24.00;;;;;;;2.06;62.32;100493.97;5095380;28;20073;-48
2022/01/17 03:21:41;;;;;;;40.20;23.85;;;;;;;1.96;63.18;100480.78;5095276;28;20026;-48
2022/01/17 03:24:07;;;;;;;45.67;25.58;;;;;;;1.97;62.98;100481.63;5093882;28;20138;-49
2022/01/17 03:26:33;;;;;;;46.10;26.40;;;;;;;2.00;63.42;100477.06;5093848;28;20028;-48
2022/01/17 03:29:01;;;;;;;39.88;23.13;;;;;;;2.06;63.02;100488.78;5095075;28;20393;-49
2022/01/17 03:31:27;;;;;;;39.22;24.10;;;;;;;2.02;62.50;100476.97;5093439;28;20040;-48
2022/01/17 03:33:53;;;;;;;40.47;23.75;;;;;;;2.02;62.65;100483.94;5093640;28;20073;-49
2022/01/17 03:36:19;;;;;;;46.25;25.25;;;;;;;1.98;62.74;100485.88;5094850;28;20429;-49
2022/01/17 03:38:46;;;;;;;44.80;26.00;;;;;;;1.95;62.73;100491.25;5093842;28;20024;-49
2022/01/17 03:41:15;;;;;;;41.47;24.17;;;;;;;1.82;63.06;100490.41;5094853;28;20020;-48
2022/01/17 03:43:41;;;;;;;44.60;25.30;;;;;;;1.76;63.44;100491.63;5093467;28;20024;-49
2022/01/17 03:46:07;;;;;;;42.97;25.95;;;;;;;1.86;63.28;100492.69;5094741;28;20028;-48
2022/01/17 03:48:33;;;;;;;50.53;28.10;;;;;;;1.96;63.49;100505.88;5094670;28;20089;-48
2022/01/17 03:51:00;;;;;;;47.08;25.35;;;;;;;1.93;62.88;100493.09;5093307;28;20050;-48
2022/01/17 03:53:27;;;;;;;49.28;26.92;;;;;;;1.69;63.29;100486.03;5093290;28;20506;-48
2022/01/17 03:55:53;;;;;;;48.35;25.70;;;;;;;1.69;63.78;100492.94;5093125;28;20023;-47
2022/01/17 03:58:21;;;;;;;46.05;25.15;;;;;;;1.75;63.27;100495.97;5093257;28;20027;-48
2022/01/17 04:00:48;;;;;;;47.15;25.23;;;;;;;1.75;63.64;100497.72;5094453;28;20019;-48
2022/01/17 04:03:15;;;;;;;44.78;27.52;;;;;;;1.74;63.42;100493.47;5093109;28;20049;-48
2022/01/17 04:05:41;;;;;;;47.35;27.50;;;;;;;1.65;63.35;100500.09;5093027;28;20501;-48
2022/01/17 04:08:08;;;;;;;47.53;26.67;;;;;;;1.64;63.87;100493.22;5094371;28;20024;-49
2022/01/17 04:10:34;;;;;;;51.47;26.88;;;;;;;1.50;64.13;100490.69;5092937;28;20018;-48
2022/01/17 04:13:04;;;;;;;47.75;26.65;;;;;;;1.53;64.35;100477.56;5094560;28;20039;-48
2022/01/17 04:15:33;;;;;;;46.00;27.45;;;;;;;1.62;64.00;100481.31;5094179;28;20031;-48
2022/01/17 04:17:59;;;;;;;50.22;28.92;;;;;;;1.62;64.04;100476.97;5092796;28;20043;-48
2022/01/17 04:20:27;;;;;;;51.75;27.90;;;;;;;1.72;64.27;100479.81;5092390;28;20042;-48
2022/01/17 04:22:56;;;;;;;45.70;27.10;;;;;;;1.83;63.52;100476.50;5092708;28;20021;-47
2022/01/17 04:25:25;;;;;;;51.28;28.40;;;;;;;1.87;63.99;100488.31;5092966;28;20024;-49
2022/01/17 04:27:52;;;;;;;49.55;26.67;;;;;;;1.96;63.92;100483.38;5093933;28;20038;-48
2022/01/17 04:30:19;;;;;;;45.55;26.50;;;;;;;1.99;63.19;100492.69;5092314;28;20036;-47
2022/01/17 04:32:46;;;;;;;50.63;27.35;;;;;;;1.97;63.42;100503.19;5092577;28;20064;-48
2022/01/17 04:35:14;;;;;;;47.88;27.10;;;;;;;1.92;63.13;100500.06;5093766;28;20550;-48
2022/01/17 04:37:41;;;;;;;52.78;27.30;;;;;;;1.88;63.77;100502.94;5093754;28;20038;-47
2022/01/17 04:40:07;;;;;;;50.85;29.15;;;;;;;1.93;63.53;100501.72;5093686;28;20547;-48
2022/01/17 04:42:33;;;;;;;50.22;28.38;;;;;;;1.87;63.64;100502.13;5093711;28;20020;-48
2022/01/17 04:45:08;;;;;;;55.15;29.77;;;;;;;1.84;63.49;100502.31;5092278;28;20031;-48
2022/01/17 04:47:47;;;;;;;50.05;27.55;;;;;;;1.91;63.41;100500.13;5092368;28;20436;-49
2022/01/17 04:50:18;;;;;;;54.95;28.60;;;;;;;1.94;63.96;100495.59;5093548;28;20406;-49
2022/01/17 04:52:43;;;;;;;62.08;30.23;;;;;;;1.99;63.34;100492.69;5092199;28;20031;-48
2022/01/17 04:55:11;;;;;;;54.03;29.17;;;;;;;1.92;63.21;100492.28;5091968;28;20032;-49
2022/01/17 04:57:38;;;;;;;54.88;28.55;;;;;;;1.85;63.54;100490.19;5093363;28;20449;-49
2022/01/17 05:00:06;;;;;;;57.25;27.95;;;;;;;1.78;63.72;100488.00;5092025;28;20024;-47
2022/01/17 05:02:32;;;;;;;55.72;29.05;;;;;;;1.73;64.01;100486.63;5091968;28;20027;-49
2022/01/17 05:04:58;;;;;;;55.15;30.27;;;;;;;1.75;63.82;100490.81;5093259;28;20028;-48
2022/01/17 05:07:23;;;;;;;51.70;27.52;;;;;;;1.82;63.73;100493.81;5091903;28;20020;-48
2022/01/17 05:09:49;;;;;;;47.15;27.05;;;;;;;1.77;63.38;100499.28;5093138;28;20031;-48
2022/01/17 05:12:15;;;;;;;48.67;26.50;;;;;;;1.71;63.66;100501.44;5093144;28;20029;-49
2022/01/17 05:14:46;;;;;;;54.35;27.17;;;;;;;1.69;64.05;100505.88;5093053;28;20076;-49
2022/01/17 05:20:10;;;;;;;58.95;28.85;;;;;;;1.45;64.11;100497.91;5069509;28;20505;-48
2022/01/17 05:22:37;;;;;;;59.58;29.75;;;;;;;1.15;64.67;100499.75;5091558;28;20012;-47
2022/01/17 05:25:07;;;;;;;63.25;32.80;;;;;;;0.86;65.06;100513.63;5092865;28;20020;-49
2022/01/17 05:27:34;;;;;;;53.97;28.52;;;;;;;0.76;65.83;100510.75;5092873;28;20069;-48
2022/01/17 05:30:01;;;;;;;56.40;29.70;;;;;;;0.88;66.14;100515.19;5092605;28;20405;-50
2022/01/17 05:32:27;;;;;;;56.50;30.23;;;;;;;1.02;65.90;100510.94;5092030;28;20057;-49
2022/01/17 05:34:52;;;;;;;54.05;29.15;;;;;;;1.01;65.78;100507.53;5092540;28;20020;-51
2022/01/17 05:37:18;;;;;;;58.30;29.40;;;;;;;1.16;66.40;100514.31;5092648;28;20020;-49
2022/01/17 05:39:44;;;;;;;63.60;30.55;;;;;;;1.34;65.64;100507.19;5091242;28;20031;-49
2022/01/17 05:42:17;;;;;;;67.88;32.15;;;;;;;1.38;65.67;100513.81;5091197;28;20028;-48
2022/01/17 05:44:43;;;;;;;64.70;31.55;;;;;;;1.32;65.43;100521.97;5092584;28;20055;-48
2022/01/17 05:47:09;;;;;;;91.28;32.25;;;;;;;1.35;65.97;100516.63;5092466;28;20022;-48
2022/01/17 05:49:36;;;;;;;67.57;30.77;;;;;;;1.53;65.78;100521.53;5091041;28;20046;-48
2022/01/17 05:52:02;;;;;;;58.70;29.13;;;;;;;1.59;65.31;100516.81;5092421;28;20493;-47
2022/01/17 05:54:28;;;;;;;61.42;29.55;;;;;;;1.63;65.56;100508.84;5092258;28;20497;-48
2022/01/17 05:56:53;;;;;;;67.25;30.50;;;;;;;1.65;65.36;100517.34;5090938;28;20028;-48
2022/01/17 05:59:19;;;;;;;66.55;30.42;;;;;;;1.70;65.54;100523.06;5092293;28;20107;-48
2022/01/17 06:01:45;;;;;;;60.75;31.27;;;;;;;1.67;64.97;100524.09;5092148;28;20020;-48
2022/01/17 06:04:11;;;;;;;59.45;29.55;;;;;;;1.65;65.57;100527.69;5092157;28;20027;-52
2022/01/17 06:06:36;;;;;;;68.55;31.60;;;;;;;1.68;65.60;100532.69;5090792;28;20120;-48
2022/01/17 06:09:03;;;;;;;61.20;31.52;;;;;;;1.78;65.59;100538.94;5090849;28;20082;-48
2022/01/17 06:11:28;;;;;;;60.33;29.50;;;;;;;1.83;65.48;100534.28;5090752;28;20073;-48
2022/01/17 06:13:54;;;;;;;56.97;29.85;;;;;;;1.83;64.99;100534.28;5090786;28;20032;-48
2022/01/17 06:16:20;;;;;;;69.50;33.70;;;;;;;1.79;65.17;100531.09;5091929;28;20036;-49
2022/01/17 06:18:46;;;;;;;59.13;28.13;;;;;;;1.63;65.46;100529.56;5091972;28;20012;-48
2022/01/17 06:21:11;;;;;;;63.70;31.10;;;;;;;1.67;66.22;100521.53;5091941;28;20075;-48
2022/01/17 06:23:37;;;;;;;70.45;31.92;;;;;;;1.70;65.93;100523.91;5091893;28;20028;-49
2022/01/17 06:26:03;;;;;;;79.70;32.67;;;;;;;1.78;65.83;100532.00;5090645;28;20032;-49
2022/01/17 06:28:29;;;;;;;70.32;32.88;;;;;;;1.90;65.69;100532.97;5091855;28;20023;-48
2022/01/17 06:30:54;;;;;;;125.97;74.63;;;;;;;1.98;65.62;100527.31;5091508;28;20119;-48
2022/01/17 06:33:20;;;;;;;131.50;70.18;;;;;;;2.02;65.89;100530.53;5091885;28;20029;-47
2022/01/17 06:35:46;;;;;;;72.55;34.47;;;;;;;2.01;65.54;100524.50;5090370;28;20020;-50
2022/01/17 06:38:11;;;;;;;70.57;33.75;;;;;;;2.02;65.76;100513.22;5090426;28;20494;-50
2022/01/17 06:40:37;;;;;;;67.47;32.97;;;;;;;2.04;65.42;100501.00;5091755;28;20074;-48
2022/01/17 06:43:06;;;;;;;72.18;33.20;;;;;;;2.03;65.68;100496.75;5092209;28;20024;-48
2022/01/17 06:45:32;;;;;;;73.75;34.35;;;;;;;2.10;65.67;100492.00;5095867;28;20031;-48
2022/01/17 06:47:57;;;;;;;74.07;32.67;;;;;;;2.08;65.73;100489.53;5094587;28;20020;-48
2022/01/17 06:50:23;;;;;;;86.28;35.28;;;;;;;2.05;65.93;100492.31;5095851;28;20016;-49
2022/01/17 06:52:49;;;;;;;75.97;33.47;;;;;;;1.96;65.99;100495.50;5095760;28;20552;-47
2022/01/17 06:55:15;;;;;;;80.05;32.78;;;;;;;1.98;66.18;100496.25;5095635;28;20020;-48
2022/01/17 06:57:40;;;;;;;80.53;33.35;;;;;;;1.73;66.09;100491.81;5094359;28;20046;-48
2022/01/17 07:00:10;;;;;;;69.60;32.05;;;;;;;1.77;67.15;100501.03;5095636;28;20489;-48
2022/01/17 07:02:36;;;;;;;88.30;32.85;;;;;;;1.85;66.77;100505.72;5095611;28;20016;-48
2022/01/17 07:05:02;;;;;;;75.30;34.63;;;;;;;1.89;67.05;100512.34;5095590;28;20099;-48
2022/01/17 07:07:28;;;;;;;81.38;35.35;;;;;;;2.02;66.59;100515.00;5095517;28;20024;-48
2022/01/17 07:09:54;;;;;;;72.43;33.67;;;;;;;2.06;66.53;100522.47;5095416;28;20017;-49
2022/01/17 07:12:20;;;;;;;78.68;37.42;;;;;;;2.06;66.06;100539.75;5095443;28;20117;-48
2022/01/17 07:14:46;;;;;;;84.75;38.20;;;;;;;2.03;66.15;100533.00;5095278;28;20039;-48
2022/01/17 07:17:12;;;;;;;77.68;35.72;;;;;;;2.05;66.62;100528.56;5093930;28;20020;-50
2022/01/17 07:19:39;;;;;;;87.93;36.90;;;;;;;2.06;66.18;100522.47;5095302;28;20020;-48
2022/01/17 07:22:06;;;;;;;93.45;38.08;;;;;;;2.02;66.29;100533.13;5093947;28;20055;-48
2022/01/17 07:24:33;;;;;;;85.15;34.97;;;;;;;1.93;65.89;100522.44;5095175;28;20107;-48
2022/01/17 07:26:59;;;;;;;80.35;35.88;;;;;;;1.69;66.59;100539.50;5095136;28;20408;-49
2022/01/17 07:29:26;;;;;;;77.55;38.50;;;;;;;1.75;66.64;100554.66;5093844;28;20122;-49
2022/01/17 07:31:52;;;;;;;83.75;35.53;;;;;;;1.90;67.29;100573.56;5094811;28;20048;-48
2022/01/17 07:34:18;;;;;;;83.53;35.80;;;;;;;2.01;67.00;100576.28;5094891;28;20031;-48
2022/01/17 07:36:44;;;;;;;83.00;37.83;;;;;;;2.11;66.95;100577.38;5093640;28;20393;-48
2022/01/17 07:39:10;;;;;;;78.30;36.95;;;;;;;2.22;66.50;100591.41;5094945;28;20029;-49
2022/01/17 07:41:36;;;;;;;85.70;37.17;;;;;;;2.20;66.20;100620.81;5094817;28;20099;-48
2022/01/17 07:44:03;;;;;;;87.85;36.22;;;;;;;2.19;66.49;100636.44;5093557;28;20026;-48
2022/01/17 07:46:46;;;;;;;84.13;36.53;;;;;;;2.18;66.65;100645.97;5094769;28;20035;-49
2022/01/17 07:49:14;;;;;;;83.03;37.42;;;;;;;2.25;66.36;100651.59;5094796;28;20016;-50
2022/01/17 07:51:43;;;;;;;87.72;38.05;;;;;;;2.22;65.78;100644.03;5094730;28;20030;-48
2022/01/17 07:54:11;;;;;;;81.53;35.47;;;;;;;2.23;66.21;100635.31;5094700;28;20073;-48
2022/01/17 07:56:40;;;;;;;81.18;36.78;;;;;;;2.27;66.11;100626.41;5093653;28;20457;-49
2022/01/17 07:59:10;;;;;;;83.28;37.08;;;;;;;2.31;65.91;100614.94;5094531;28;20086;-48
2022/01/17 08:01:37;;;;;;;86.78;36.33;;;;;;;2.28;65.76;100612.56;5094469;28;20494;-48
2022/01/17 08:04:06;;;;;;;180.32;115.65;;;;;;;2.30;66.07;100612.47;5094401;28;20027;-49
2022/01/17 08:06:38;;;;;;;89.47;43.15;;;;;;;2.41;66.07;100604.81;5094370;28;20032;-47
2022/01/17 08:09:14;;;;;;;110.07;53.65;;;;;;;2.48;65.73;100595.69;5094420;28;20055;-49
2022/01/17 08:11:39;;;;;;;;;;;;;;;2.46;65.46;100600.16;5094732;28;20489;-47
2022/01/17 08:14:05;;;;;;;124.50;78.73;;;;;;;2.48;65.73;100608.66;5092963;28;19912;-49
2022/01/17 08:16:31;;;;;;;82.60;38.05;;;;;;;2.52;65.54;100597.16;5094093;28;20327;-48
2022/01/17 08:18:57;;;;;;;81.13;40.63;;;;;;;2.58;65.76;100585.56;5092820;28;20032;-48
2022/01/17 08:21:23;;;;;;;78.88;31.85;;;;;;;2.62;65.26;100568.03;5092742;28;20028;-48
2022/01/17 08:23:49;;;;;;;62.00;30.50;;;;;;;2.64;65.48;100564.41;5092788;28;20111;-48
2022/01/17 08:26:15;;;;;;;61.40;30.70;;;;;;;2.67;65.14;100568.56;5092698;28;20561;-49
2022/01/17 08:28:41;;;;;;;73.43;34.20;;;;;;;2.66;64.60;100559.13;5093980;28;20150;-48
2022/01/17 08:31:07;;;;;;;67.72;34.17;;;;;;;2.72;65.00;100567.31;5093708;28;20032;-48
2022/01/17 08:33:34;;;;;;;67.00;29.70;;;;;;;2.75;64.85;100569.69;5094121;28;20032;-49
2022/01/17 08:35:59;;;;;;;77.18;31.63;;;;;;;2.76;64.79;100578.31;5093741;28;20390;-49
2022/01/17 08:38:28;;;;;;;72.82;31.17;;;;;;;2.85;64.77;100585.47;5093748;28;20036;-49
2022/01/17 08:40:55;;;;;;;71.53;31.58;;;;;;;2.95;64.46;100583.91;5093756;28;20013;-48
2022/01/17 08:43:21;;;;;;;63.58;31.00;;;;;;;2.83;63.46;100589.94;5092320;28;20054;-48
2022/01/17 08:45:48;;;;;;;67.93;34.50;;;;;;;2.62;63.59;100593.94;5093623;28;20024;-48
2022/01/17 08:48:15;;;;;;;69.78;33.28;;;;;;;2.40;64.41;100593.63;5093610;28;20035;-49
2022/01/17 08:50:42;;;;;;;82.40;32.38;;;;;;;2.36;65.14;100601.69;5093582;28;20016;-48
2022/01/17 08:53:10;;;;;;;62.55;30.17;;;;;;;2.36;64.73;100597.34;5092195;28;20085;-48
2022/01/17 08:55:37;;;;;;;62.10;32.15;;;;;;;2.38;64.81;100599.84;5093363;28;20024;-49
2022/01/17 08:58:04;;;;;;;65.50;31.08;;;;;;;2.50;64.89;100604.22;5093427;28;20046;-48
2022/01/17 09:00:33;;;;;;;72.25;32.55;;;;;;;2.56;64.71;100592.63;5093352;28;20095;-47
2022/01/17 09:03:02;;;;;;;67.00;33.85;;;;;;;2.55;64.23;100571.03;5093330;28;20047;-48
2022/01/17 09:05:29;;;;;;;68.00;30.83;;;;;;;2.59;64.69;100575.06;5093222;28;20024;-48
2022/01/17 09:07:55;;;;;;;64.85;33.67;;;;;;;2.69;64.16;100561.50;5092113;28;20031;-49
2022/01/17 09:10:21;;;;;;;66.80;31.85;;;;;;;2.68;64.26;100559.88;5093102;28;20104;-49
2022/01/17 09:12:47;;;;;;;66.45;31.25;;;;;;;2.73;63.79;100550.81;5093144;28;20020;-48
2022/01/17 09:15:13;;;;;;;285.80;194.88;;;;;;;2.73;64.18;100552.59;5091632;28;20024;-48
2022/01/17 09:17:39;;;;;;;74.85;40.78;;;;;;;2.87;64.12;100546.47;5093009;28;20504;-48
2022/01/17 09:20:06;;;;;;;70.35;33.15;;;;;;;2.92;63.92;100554.78;5092993;28;20081;-48
2022/01/17 09:22:32;;;;;;;62.47;31.67;;;;;;;3.04;63.63;100563.47;5092952;28;20028;-49
2022/01/17 09:24:58;;;;;;;65.07;30.17;;;;;;;3.22;63.65;100575.19;5091828;28;20024;-48
2022/01/17 09:27:25;;;;;;;63.92;29.88;;;;;;;3.41;63.18;100577.31;5092874;28;20758;-48
2022/01/17 09:29:52;;;;;;;71.30;31.35;;;;;;;3.50;62.79;100581.03;5092881;28;20029;-48
2022/01/17 09:32:18;;;;;;;69.20;31.98;;;;;;;3.62;62.33;100572.38;5091214;28;20040;-47
2022/01/17 09:34:46;;;;;;;87.15;47.05;;;;;;;3.71;62.42;100579.53;5091334;28;20028;-49
2022/01/17 09:37:13;;;;;;;89.20;54.60;;;;;;;3.76;62.01;100574.00;5092623;28;20026;-48
2022/01/17 09:39:39;;;;;;;67.70;36.58;;;;;;;3.80;61.80;100580.63;5092621;28;20024;-49
2022/01/17 09:42:09;;;;;;;65.53;31.48;;;;;;;3.78;61.80;100587.69;5092575;28;20023;-48
2022/01/17 09:44:36;;;;;;;61.75;31.38;;;;;;;3.80;61.73;100597.06;5092456;28;20024;-50
2022/01/17 09:47:07;;;;;;;66.50;30.58;;;;;;;3.78;61.61;100634.44;5092485;28;20016;-48
2022/01/17 09:49:47;;;;;;;69.53;34.58;;;;;;;3.80;61.58;100656.78;5091111;28;20032;-48
2022/01/17 09:52:33;;;;;;;74.07;33.30;;;;;;;3.89;61.28;100670.06;5092498;28;20107;-47
2022/01/17 09:55:29;;;;;;;73.03;34.88;;;;;;;3.93;61.32;100674.09;5092374;28;20115;-47
2022/01/17 09:58:02;;;;;;;87.82;39.47;;;;;;;3.93;61.21;100663.72;5079388;28;20112;-48
2022/01/17 10:00:32;;;;;;;78.05;36.13;;;;;;;3.90;61.05;100656.94;5092256;28;20044;-49
2022/01/17 10:03:03;;;;;;;88.95;44.58;;;;;;;3.74;61.04;100675.41;5090953;28;20028;-49
2022/01/17 10:05:29;;;;;;;66.05;32.03;;;;;;;3.65;61.68;100675.19;5092198;28;20034;-48
2022/01/17 10:08:01;;;;;;;68.80;31.30;;;;;;;3.51;60.79;100660.56;5092249;28;20019;-49
2022/01/17 10:10:36;;;;;;;76.80;34.42;;;;;;;3.31;61.68;100660.16;5092155;28;20024;-50
2022/01/17 10:13:13;;;;;;;;;;;;;;;3.43;62.05;100655.91;5092518;28;20024;-50
2022/01/17 10:15:56;;;;;;;94.47;35.05;;;;;;;3.49;61.89;100658.06;5091973;28;19938;-50
2022/01/17 10:18:37;;;;;;;74.60;32.28;;;;;;;3.61;61.47;100669.38;5091681;28;20046;-50
2022/01/17 10:21:11;;;;;;;74.30;33.35;;;;;;;3.65;61.41;100668.22;5091998;28;20031;-51
2022/01/17 10:34:53;;;;;;;76.95;32.22;;;;;;;4.20;60.74;100671.28;5091524;28;20131;-49
2022/01/17 10:35:06;;;;;;;79.45;33.70;;;;;;;4.26;60.51;100677.81;5091736;28;20033;-51
2022/01/17 10:37:14;;;;;;;86.05;38.50;;;;;;;4.21;59.77;100691.16;5086042;28;20119;-48
2022/01/17 10:39:58;;;;;;;68.30;31.63;;;;;;;4.13;60.39;100696.06;5091811;28;20051;-49
2022/01/17 10:42:28;;;;;;;85.90;37.05;;;;;;;4.12;60.44;100687.44;5091812;28;20047;-49
2022/01/17 10:45:02;;;;;;;87.97;37.75;;;;;;;4.23;60.62;100676.28;5090516;28;20505;-48
2022/01/17 10:47:28;;;;;;;77.95;40.75;;;;;;;4.27;60.02;100667.31;5091791;28;20055;-48
2022/01/17 10:49:58;;;;;;;77.65;41.50;;;;;;;4.23;59.79;100667.66;5091741;28;20020;-48
2022/01/17 10:52:33;;;;;;;65.22;34.90;;;;;;;4.11;59.35;100664.16;5107347;28;20036;-48
2022/01/17 10:55:16;;;;;;;63.28;30.98;;;;;;;3.89;59.59;100672.66;5091673;28;20107;-48
2022/01/17 10:57:48;;;;;;;73.20;38.08;;;;;;;3.66;59.92;100669.06;5090388;28;20028;-49
2022/01/17 11:00:17;;;;;;;73.22;35.53;;;;;;;3.67;60.75;100661.16;5091571;28;20038;-49
2022/01/17 11:02:50;;;;;;;70.78;32.55;;;;;;;3.69;60.68;100655.88;5090433;28;20039;-49
2022/01/17 11:05:18;;;;;;;71.40;33.20;;;;;;;3.78;61.20;100661.25;5091627;28;20036;-48
2022/01/17 11:07:46;;;;;;;62.58;32.63;;;;;;;3.91;60.76;100650.00;5091591;28;20039;-48
2022/01/17 11:10:24;;;;;;;71.82;34.92;;;;;;;4.14;60.94;100646.56;5090155;28;20070;-49
2022/01/17 11:12:51;;;;;;;67.78;31.70;;;;;;;4.52;60.38;100639.53;5091599;28;20048;-48
2022/01/17 11:15:19;;;;;;;65.47;33.22;;;;;;;4.81;59.67;100626.97;5091360;28;20162;-48
2022/01/17 11:17:51;;;;;;;69.15;31.48;;;;;;;4.92;59.72;100624.38;5091499;28;20027;-48
2022/01/17 11:20:18;;;;;;;74.40;37.42;;;;;;;5.22;59.26;100616.97;5091438;28;20394;-48
2022/01/17 11:22:46;;;;;;;64.20;32.75;;;;;;;5.49;58.68;100621.81;5091422;28;20027;-49
2022/01/17 11:25:20;;;;;;;75.13;40.85;;;;;;;5.68;57.59;100624.63;5091357;28;20024;-49
2022/01/17 11:27:46;;;;;;;79.63;35.22;;;;;;;5.72;57.49;100614.81;5091415;28;20028;-48
2022/01/17 11:30:12;;;;;;;71.07;35.25;;;;;;;5.77;57.95;100615.25;5091629;28;20028;-48
2022/01/17 11:32:39;;;;;;;68.05;35.78;;;;;;;5.80;56.98;100613.25;5095113;28;20031;-49
2022/01/17 11:35:07;;;;;;;71.68;34.75;;;;;;;5.71;57.06;100610.53;5094985;28;20060;-49
2022/01/17 11:37:37;;;;;;;90.50;35.25;;;;;;;5.52;56.87;100608.56;5093674;28;20032;-49
2022/01/17 11:40:06;;;;;;;63.22;33.50;;;;;;;5.49;57.42;100603.59;5095012;28;20371;-49